Time;durP1;ratioP1;P1;durP2;ratioP2;P2;SDS_P1;SDS_P2;PMS_P1;PMS_P2;Temp;Humidity;BMP_temperature;BMP_pressure;BME280_temperature;BME280_humidity;BME280_pressure;Samples;Min_cycle;Max_cycle;Signal;HPM_P1;HPM_P2
2022/01/04 00:02:22;;;;;;;14.13;10.40;;;10.70;99.90;;;;;;5032821;28;20030;-74
2022/01/04 00:04:48;;;;;;;18.88;12.00;;;10.70;99.90;;;;;;5034040;28;20028;-74
2022/01/04 00:07:13;;;;;;;13.60;10.63;;;10.70;99.90;;;;;;5032794;28;20109;-74
2022/01/04 00:09:42;;;;;;;13.32;10.18;;;10.70;99.90;;;;;;5027055;28;20029;-74
2022/01/04 00:14:53;;;;;;;15.18;10.30;;;10.70;99.90;;;;;;5055059;28;20040;-74
2022/01/04 00:17:19;;;;;;;14.30;10.23;;;10.60;99.90;;;;;;5055175;28;20025;-74
2022/01/04 00:19:45;;;;;;;15.80;9.45;;;10.60;99.90;;;;;;5054458;28;20037;-74
2022/01/04 00:22:10;;;;;;;20.50;10.05;;;10.60;99.90;;;;;;5054453;28;20025;-74
2022/01/04 00:24:36;;;;;;;15.32;9.50;;;10.60;99.90;;;;;;5054454;28;20025;-74
2022/01/04 00:27:02;;;;;;;14.27;9.85;;;10.60;99.90;;;;;;5054564;28;20472;-74
2022/01/04 00:29:28;;;;;;;14.88;9.70;;;10.50;99.90;;;;;;5054257;28;20040;-74
2022/01/04 00:31:53;;;;;;;13.93;8.73;;;10.50;99.90;;;;;;5053857;28;20028;-74
2022/01/04 00:34:19;;;;;;;13.88;8.20;;;10.50;99.90;;;;;;5054515;28;20480;-74
2022/01/04 00:36:44;;;;;;;15.25;8.52;;;10.40;99.90;;;;;;5054259;28;20483;-74
2022/01/04 00:39:10;;;;;;;14.25;8.82;;;10.50;99.90;;;;;;5054208;28;20376;-74
2022/01/04 00:41:35;;;;;;;14.40;8.27;;;10.50;99.90;;;;;;5053993;28;20031;-74
2022/01/04 00:44:01;;;;;;;12.18;8.63;;;10.40;99.90;;;;;;5054106;28;20033;-74
2022/01/04 00:46:27;;;;;;;12.82;8.50;;;10.50;99.90;;;;;;5054334;28;20044;-74
2022/01/04 00:49:11;;;;;;;13.60;7.70;;;10.40;99.90;;;;;;5054312;28;20029;-74
2022/01/04 00:51:47;;;;;;;13.00;8.88;;;10.50;99.90;;;;;;5057501;28;20066;-74
2022/01/04 00:54:13;;;;;;;13.60;8.70;;;10.50;99.90;;;;;;5058120;28;20033;-74
2022/01/04 00:56:39;;;;;;;14.52;9.10;;;10.50;99.90;;;;;;5053725;28;20066;-74
2022/01/04 00:59:05;;;;;;;16.00;9.82;;;10.50;99.90;;;;;;5053823;28;20125;-74
2022/01/04 01:01:32;;;;;;;15.98;9.18;;;10.50;99.90;;;;;;5053702;28;20438;-74
2022/01/04 01:03:58;;;;;;;14.55;9.82;;;10.40;99.90;;;;;;5050672;28;20071;-74
2022/01/04 01:06:24;;;;;;;13.40;9.68;;;10.40;99.90;;;;;;5053800;28;20025;-74
2022/01/04 01:08:50;;;;;;;17.17;9.70;;;10.50;99.90;;;;;;5053631;28;20025;-75
2022/01/04 01:11:16;;;;;;;15.18;9.52;;;10.50;99.90;;;;;;5053267;28;20028;-73
2022/01/04 01:13:42;;;;;;;13.02;9.93;;;10.50;99.90;;;;;;5053706;28;20033;-74
2022/01/04 01:16:09;;;;;;;15.57;9.68;;;10.40;99.90;;;;;;5053110;28;20024;-74
2022/01/04 01:18:35;;;;;;;15.52;9.63;;;10.40;99.90;;;;;;5053393;28;20032;-74
2022/01/04 01:21:03;;;;;;;15.13;9.75;;;10.40;99.90;;;;;;5053793;28;20380;-74
2022/01/04 01:23:29;;;;;;;12.80;9.98;;;10.40;99.90;;;;;;5053026;28;20029;-73
2022/01/04 01:25:55;;;;;;;17.40;9.85;;;10.40;99.90;;;;;;5053247;28;20518;-73
2022/01/04 01:28:21;;;;;;;14.73;9.88;;;10.40;99.90;;;;;;5053427;28;20021;-73
2022/01/04 01:30:47;;;;;;;18.42;10.43;;;10.40;99.90;;;;;;5053260;28;20017;-73
2022/01/04 01:33:13;;;;;;;14.25;10.90;;;10.40;99.90;;;;;;5053062;28;20094;-73
2022/01/04 01:35:40;;;;;;;16.05;10.77;;;10.40;99.90;;;;;;5053042;28;20113;-73
2022/01/04 01:38:08;;;;;;;12.65;10.80;;;10.40;99.90;;;;;;5053179;28;20443;-74
2022/01/04 01:40:34;;;;;;;15.57;10.95;;;10.40;99.90;;;;;;5053049;28;20033;-73
2022/01/04 01:43:00;;;;;;;18.38;11.07;;;10.40;99.90;;;;;;5052344;28;20044;-73
2022/01/04 01:45:26;;;;;;;12.80;10.63;;;10.40;99.90;;;;;;5052564;28;20500;-74
2022/01/04 01:47:52;;;;;;;12.95;10.50;;;10.40;99.90;;;;;;5053138;28;20025;-74
2022/01/04 01:50:19;;;;;;;16.13;11.80;;;10.50;99.90;;;;;;5052792;28;20522;-74
2022/01/04 01:52:48;;;;;;;13.13;11.02;;;10.50;99.90;;;;;;5052804;28;20043;-74
2022/01/04 01:55:15;;;;;;;16.88;11.50;;;10.50;99.90;;;;;;5053198;28;20439;-74
2022/01/04 01:57:41;;;;;;;13.98;10.80;;;10.50;99.90;;;;;;5051583;28;20028;-74
2022/01/04 02:00:09;;;;;;;13.85;11.20;;;10.40;99.90;;;;;;5052425;28;20055;-74
2022/01/04 02:02:35;;;;;;;15.43;10.68;;;10.40;99.90;;;;;;5052307;28;20031;-75
2022/01/04 02:05:01;;;;;;;20.05;12.30;;;10.40;99.90;;;;;;5052780;28;20107;-75
2022/01/04 02:07:27;;;;;;;18.42;12.40;;;10.40;99.90;;;;;;5052448;28;20021;-75
2022/01/04 02:10:02;;;;;;;16.35;12.27;;;10.30;99.90;;;;;;5051687;28;20086;-75
2022/01/04 02:12:32;;;;;;;16.55;11.75;;;10.30;99.90;;;;;;5052933;28;20053;-75
2022/01/04 02:14:58;;;;;;;17.63;12.88;;;10.20;99.90;;;;;;5052586;28;20478;-76
2022/01/04 02:17:23;;;;;;;18.38;12.20;;;10.30;99.90;;;;;;5052410;28;20107;-76
2022/01/04 02:19:50;;;;;;;17.95;12.68;;;10.20;99.90;;;;;;5051911;28;20278;-75
2022/01/04 02:22:15;;;;;;;19.67;11.95;;;10.20;99.90;;;;;;5052069;28;20032;-76
2022/01/04 02:24:41;;;;;;;18.90;13.35;;;10.20;99.90;;;;;;5051831;28;20112;-76
2022/01/04 02:27:06;;;;;;;19.58;13.43;;;10.20;99.90;;;;;;5052643;28;20025;-75
2022/01/04 02:29:32;;;;;;;15.63;12.73;;;10.20;99.90;;;;;;5051675;28;20029;-76
2022/01/04 02:31:58;;;;;;;15.40;13.07;;;10.20;99.90;;;;;;5051760;28;20049;-76
2022/01/04 02:34:24;;;;;;;21.35;13.45;;;10.20;99.90;;;;;;5052077;28;20024;-75
2022/01/04 02:36:49;;;;;;;17.75;13.13;;;10.20;99.90;;;;;;5052434;28;20395;-76
2022/01/04 02:39:15;;;;;;;20.27;12.73;;;10.20;99.90;;;;;;5051803;28;20507;-75
2022/01/04 02:41:41;;;;;;;18.00;12.18;;;10.10;99.90;;;;;;5052456;28;20037;-75
2022/01/04 02:44:06;;;;;;;16.20;12.65;;;10.10;99.90;;;;;;5051457;28;21913;-75
2022/01/04 02:46:32;;;;;;;18.17;11.88;;;10.10;99.90;;;;;;5051904;28;20124;-75
2022/01/04 02:48:57;;;;;;;16.17;12.07;;;10.10;99.90;;;;;;5051322;28;20051;-75
2022/01/04 02:51:23;;;;;;;17.48;12.55;;;10.10;99.90;;;;;;5052022;28;20530;-75
2022/01/04 02:53:49;;;;;;;24.33;12.68;;;10.10;99.90;;;;;;5051463;28;20083;-75
2022/01/04 02:56:15;;;;;;;15.07;11.93;;;10.10;99.90;;;;;;5051735;28;20460;-75
2022/01/04 02:58:41;;;;;;;15.43;11.65;;;10.20;99.90;;;;;;5050926;28;20037;-75
2022/01/04 03:01:07;;;;;;;15.45;10.90;;;10.20;99.90;;;;;;5051385;28;20020;-75
2022/01/04 03:03:33;;;;;;;15.65;11.32;;;10.10;99.90;;;;;;5051513;28;20112;-75
2022/01/04 03:05:59;;;;;;;14.27;12.18;;;10.10;99.90;;;;;;5051908;28;20044;-76
2022/01/04 03:08:25;;;;;;;15.27;11.82;;;10.10;99.90;;;;;;5051698;28;20029;-75
2022/01/04 03:10:51;;;;;;;19.50;11.13;;;10.10;99.90;;;;;;5047041;28;20049;-75
2022/01/04 03:13:17;;;;;;;17.35;12.48;;;10.00;99.90;;;;;;5051560;28;20055;-74
2022/01/04 03:15:44;;;;;;;15.07;11.10;;;10.10;99.90;;;;;;5047150;28;20025;-74
2022/01/04 03:18:10;;;;;;;15.43;11.38;;;10.10;99.90;;;;;;5052180;28;20017;-74
2022/01/04 03:20:35;;;;;;;18.50;10.60;;;10.00;99.90;;;;;;5050945;28;20070;-74
2022/01/04 03:23:01;;;;;;;16.35;11.02;;;10.00;99.90;;;;;;5051426;28;20017;-74
2022/01/04 03:25:27;;;;;;;16.42;11.65;;;10.00;99.90;;;;;;5051350;28;20040;-74
2022/01/04 03:27:52;;;;;;;13.75;10.88;;;10.00;99.90;;;;;;5052178;28;20059;-74
2022/01/04 03:30:18;;;;;;;16.58;11.40;;;10.00;99.90;;;;;;5050838;28;20102;-74
2022/01/04 03:32:44;;;;;;;12.73;11.02;;;10.00;99.90;;;;;;5049127;28;20043;-74
2022/01/04 03:35:10;;;;;;;17.15;11.13;;;10.10;99.90;;;;;;5045796;28;20079;-76
2022/01/04 03:37:36;;;;;;;15.35;11.98;;;10.00;99.90;;;;;;5051509;28;20441;-74
2022/01/04 03:40:03;;;;;;;13.65;10.82;;;10.00;99.90;;;;;;5051019;28;20068;-74
2022/01/04 03:42:28;;;;;;;13.10;10.95;;;10.00;99.90;;;;;;5059592;28;20060;-74
2022/01/04 03:44:54;;;;;;;17.00;11.55;;;9.90;99.90;;;;;;5045685;28;20029;-74
2022/01/04 03:47:19;;;;;;;17.80;11.40;;;10.00;99.90;;;;;;5013968;28;20022;-74
2022/01/04 03:49:45;;;;;;;20.13;11.98;;;10.00;99.90;;;;;;5015231;28;20385;-74
2022/01/04 03:52:11;;;;;;;19.02;12.38;;;10.00;99.90;;;;;;5013727;28;20464;-75
2022/01/04 03:54:36;;;;;;;15.70;11.75;;;9.90;99.90;;;;;;5019549;28;20068;-74
2022/01/04 03:57:02;;;;;;;14.95;11.70;;;9.90;99.90;;;;;;5019068;28;20029;-74
2022/01/04 03:59:27;;;;;;;14.93;11.05;;;10.00;99.90;;;;;;5024750;28;20046;-74
2022/01/04 04:01:53;;;;;;;16.13;12.23;;;10.00;99.90;;;;;;5048086;28;20453;-74
2022/01/04 04:04:19;;;;;;;14.85;11.98;;;10.00;99.90;;;;;;5051071;28;20396;-74
2022/01/04 04:06:46;;;;;;;15.80;12.25;;;9.90;99.90;;;;;;5051944;28;20423;-75
2022/01/04 04:09:11;;;;;;;19.67;13.00;;;9.90;99.90;;;;;;5054713;28;20017;-74
2022/01/04 04:11:37;;;;;;;16.05;12.65;;;9.90;99.90;;;;;;5054660;28;20052;-74
2022/01/04 04:14:03;;;;;;;17.20;12.68;;;9.80;99.90;;;;;;5054192;28;20028;-74
2022/01/04 04:16:28;;;;;;;14.90;12.48;;;9.80;99.90;;;;;;5054456;28;20084;-75
2022/01/04 04:18:55;;;;;;;17.13;12.18;;;9.90;99.90;;;;;;5054191;28;20071;-74
2022/01/04 04:21:20;;;;;;;16.95;13.18;;;9.90;99.90;;;;;;5048974;28;20041;-74
2022/01/04 04:23:46;;;;;;;18.52;12.98;;;9.80;99.90;;;;;;5054656;28;20453;-74
2022/01/04 04:26:11;;;;;;;18.58;14.20;;;9.80;99.90;;;;;;5054357;28;20055;-75
2022/01/04 04:28:37;;;;;;;20.50;12.93;;;9.80;99.90;;;;;;5054201;28;20357;-74
2022/01/04 04:31:05;;;;;;;17.38;12.70;;;9.80;99.90;;;;;;5054237;28;20028;-74
2022/01/04 04:33:31;;;;;;;15.40;12.40;;;9.80;99.90;;;;;;5054249;28;20549;-75
2022/01/04 04:35:56;;;;;;;16.38;12.60;;;9.80;99.90;;;;;;5054162;28;20020;-75
2022/01/04 04:38:22;;;;;;;19.73;13.52;;;9.80;99.90;;;;;;5058075;28;20024;-75
2022/01/04 04:40:47;;;;;;;18.88;13.45;;;9.80;99.90;;;;;;5056731;28;20036;-74
2022/01/04 04:43:13;;;;;;;19.58;14.30;;;9.90;99.90;;;;;;5053667;28;20053;-75
2022/01/04 04:45:39;;;;;;;16.10;13.18;;;9.80;99.90;;;;;;5054087;28;20033;-75
2022/01/04 04:48:04;;;;;;;20.25;13.32;;;9.80;99.90;;;;;;5054127;28;20017;-75
2022/01/04 04:50:31;;;;;;;17.23;13.43;;;9.80;99.90;;;;;;5054219;28;20025;-75
2022/01/04 04:52:57;;;;;;;19.38;13.98;;;9.80;99.90;;;;;;5054048;28;20407;-75
2022/01/04 04:55:23;;;;;;;20.73;14.50;;;9.80;99.90;;;;;;5053801;28;20017;-74
2022/01/04 04:57:48;;;;;;;19.00;14.32;;;9.80;99.90;;;;;;5054036;28;20121;-75
2022/01/04 05:00:15;;;;;;;18.25;13.95;;;9.80;99.90;;;;;;5053374;28;20128;-75
2022/01/04 05:02:41;;;;;;;19.88;14.80;;;9.80;99.90;;;;;;5053475;28;20123;-75
2022/01/04 05:05:07;;;;;;;21.38;15.90;;;9.80;99.90;;;;;;5053895;28;20542;-75
2022/01/04 05:07:34;;;;;;;18.98;15.02;;;9.80;99.90;;;;;;5053263;28;20063;-75
2022/01/04 05:10:00;;;;;;;22.80;15.45;;;9.80;99.90;;;;;;5053861;28;20116;-75
2022/01/04 05:12:26;;;;;;;20.98;15.48;;;9.80;99.90;;;;;;5053744;28;20084;-75
2022/01/04 05:14:51;;;;;;;22.88;15.88;;;9.80;99.90;;;;;;5053625;28;20476;-74
2022/01/04 05:17:17;;;;;;;20.25;15.45;;;9.80;99.90;;;;;;5053782;28;20452;-74
2022/01/04 05:19:43;;;;;;;20.55;15.40;;;9.80;99.90;;;;;;5053336;28;20033;-74
2022/01/04 05:22:09;;;;;;;21.27;15.70;;;9.80;99.90;;;;;;5053681;28;20098;-74
2022/01/04 05:24:34;;;;;;;21.23;16.13;;;9.80;99.90;;;;;;5053466;28;20021;-74
2022/01/04 05:27:00;;;;;;;19.45;15.40;;;9.80;99.90;;;;;;5053817;28;20083;-74
2022/01/04 05:29:26;;;;;;;20.42;14.90;;;9.80;99.90;;;;;;5047834;28;20052;-75
2022/01/04 05:31:52;;;;;;;25.77;16.83;;;9.80;99.90;;;;;;5052977;28;20048;-76
2022/01/04 05:34:17;;;;;;;21.42;15.63;;;9.80;99.90;;;;;;5056178;28;20025;-76
2022/01/04 05:36:43;;;;;;;20.88;15.85;;;9.70;99.90;;;;;;5057172;28;20115;-76
2022/01/04 05:39:09;;;;;;;20.17;16.08;;;9.80;99.90;;;;;;5053211;28;20041;-76
2022/01/04 05:41:35;;;;;;;18.73;15.25;;;9.70;99.90;;;;;;5052544;28;20101;-76
2022/01/04 05:44:01;;;;;;;19.98;14.75;;;9.70;99.90;;;;;;5052801;28;20469;-76
2022/01/04 05:46:26;;;;;;;23.50;15.55;;;9.70;99.90;;;;;;5052725;28;20029;-76
2022/01/04 05:48:52;;;;;;;19.88;14.30;;;9.80;99.90;;;;;;5052942;28;20408;-75
2022/01/04 05:51:17;;;;;;;24.17;15.10;;;9.70;99.90;;;;;;5052247;28;20116;-75
2022/01/04 05:53:43;;;;;;;18.95;13.90;;;9.80;99.90;;;;;;5052644;28;20032;-75
2022/01/04 05:56:09;;;;;;;22.08;15.82;;;9.80;99.90;;;;;;5052546;28;20048;-75
2022/01/04 05:58:35;;;;;;;21.27;15.60;;;9.70;99.90;;;;;;5052782;28;20044;-75
2022/01/04 06:01:00;;;;;;;18.10;14.52;;;9.60;99.90;;;;;;5052390;28;20094;-75
2022/01/04 06:03:26;;;;;;;19.92;14.88;;;9.60;99.90;;;;;;5052796;28;20024;-75
2022/01/04 06:05:53;;;;;;;21.35;15.82;;;9.60;99.90;;;;;;5052159;28;20053;-75
2022/01/04 06:08:20;;;;;;;20.02;16.40;;;9.50;99.90;;;;;;5052464;28;20033;-76
2022/01/04 06:10:50;;;;;;;23.35;15.63;;;9.50;99.90;;;;;;5052607;28;20099;-75
2022/01/04 06:16:00;;;;;;;19.48;13.90;;;9.50;99.90;;;;;;5052249;28;20035;-75
2022/01/04 06:18:26;;;;;;;24.38;15.95;;;9.50;99.90;;;;;;5052735;28;20017;-75
2022/01/04 06:20:51;;;;;;;21.10;15.40;;;9.50;99.90;;;;;;5052608;28;20473;-75
2022/01/04 06:23:17;;;;;;;21.95;16.02;;;9.60;99.90;;;;;;5052435;28;20021;-74
2022/01/04 06:25:43;;;;;;;22.60;15.20;;;9.60;99.90;;;;;;5052277;28;20494;-74
2022/01/04 06:28:08;;;;;;;19.67;14.63;;;9.60;99.90;;;;;;5052310;28;20055;-74
2022/01/04 06:30:34;;;;;;;20.88;16.05;;;9.70;99.90;;;;;;5051915;28;20029;-74
2022/01/04 06:33:00;;;;;;;22.02;15.95;;;9.70;99.90;;;;;;5052442;28;20020;-74
2022/01/04 06:35:27;;;;;;;22.42;16.73;;;9.70;99.90;;;;;;5052141;28;20043;-74
2022/01/04 06:37:54;;;;;;;21.85;16.65;;;9.70;99.90;;;;;;5047381;28;20033;-74
2022/01/04 06:40:20;;;;;;;21.65;15.90;;;9.60;99.90;;;;;;5052046;28;20068;-73
2022/01/04 06:42:45;;;;;;;22.80;16.60;;;9.60;99.90;;;;;;5051664;28;20437;-74
2022/01/04 06:45:12;;;;;;;26.90;16.15;;;9.70;99.90;;;;;;5051997;28;20036;-74
2022/01/04 06:47:38;;;;;;;22.65;16.45;;;9.70;99.90;;;;;;5051242;28;20036;-75
2022/01/04 06:50:06;;;;;;;23.35;16.35;;;9.60;99.90;;;;;;5051846;28;20032;-74
2022/01/04 06:52:33;;;;;;;21.08;16.95;;;9.70;99.90;;;;;;5049614;28;20082;-74
2022/01/04 06:54:58;;;;;;;21.65;16.88;;;9.60;99.90;;;;;;5051580;28;20032;-74
2022/01/04 06:57:24;;;;;;;22.48;16.40;;;9.70;99.90;;;;;;5051602;28;20154;-74
2022/01/04 06:59:50;;;;;;;21.15;16.17;;;9.70;99.90;;;;;;5051523;28;20052;-74
2022/01/04 07:02:15;;;;;;;24.48;18.00;;;9.70;99.90;;;;;;5051597;28;20090;-75
2022/01/04 07:04:41;;;;;;;22.90;17.30;;;9.70;99.90;;;;;;5051564;28;20029;-75
2022/01/04 07:07:06;;;;;;;21.90;18.10;;;9.70;99.90;;;;;;5051242;28;20028;-75
2022/01/04 07:09:32;;;;;;;23.42;18.20;;;9.70;99.90;;;;;;5051074;28;20029;-74
2022/01/04 07:11:57;;;;;;;23.98;18.63;;;9.70;99.90;;;;;;5051380;28;20380;-74
2022/01/04 07:14:23;;;;;;;28.58;17.58;;;9.60;99.90;;;;;;5051712;28;20120;-74
2022/01/04 07:16:49;;;;;;;27.60;19.35;;;9.60;99.90;;;;;;5051761;28;20033;-74
2022/01/04 07:19:15;;;;;;;25.40;19.05;;;9.60;99.90;;;;;;5051833;28;20452;-74
2022/01/04 07:21:41;;;;;;;26.90;19.75;;;9.60;99.90;;;;;;5051370;28;20131;-74
2022/01/04 07:24:07;;;;;;;28.75;20.35;;;9.50;99.90;;;;;;5051446;28;20053;-75
2022/01/04 07:26:32;;;;;;;24.70;19.17;;;9.50;99.90;;;;;;5051957;28;20036;-74
2022/01/04 07:28:58;;;;;;;24.05;19.23;;;9.50;99.90;;;;;;5059846;28;20452;-80
2022/01/04 07:31:24;;;;;;;24.75;19.33;;;9.50;99.90;;;;;;5052253;28;20036;-75
2022/01/04 07:33:49;;;;;;;29.00;20.92;;;9.50;99.90;;;;;;5026486;28;20396;-75
2022/01/04 07:36:15;;;;;;;28.60;19.67;;;9.50;99.90;;;;;;5014026;28;20103;-75
2022/01/04 07:38:42;;;;;;;28.85;20.77;;;9.40;99.90;;;;;;5024945;28;20021;-75
2022/01/04 07:41:08;;;;;;;26.13;20.02;;;9.50;99.90;;;;;;5019011;28;20103;-76
2022/01/04 07:43:34;;;;;;;29.38;19.45;;;9.50;99.90;;;;;;5018921;28;20469;-75
2022/01/04 07:45:59;;;;;;;28.38;19.95;;;9.50;99.90;;;;;;5017414;28;20171;-75
2022/01/04 07:48:25;;;;;;;25.92;19.63;;;9.50;99.90;;;;;;5025505;28;20037;-76
2022/01/04 07:50:55;;;;;;;28.58;19.90;;;9.50;99.90;;;;;;5027830;28;20461;-76
2022/01/04 07:53:22;;;;;;;29.52;20.17;;;9.50;99.90;;;;;;5053001;28;20027;-76
2022/01/04 07:55:48;;;;;;;27.15;20.30;;;9.60;99.90;;;;;;5055342;28;20056;-76
2022/01/04 07:58:13;;;;;;;26.33;19.75;;;9.60;99.90;;;;;;5054592;28;20526;-76
2022/01/04 08:00:39;;;;;;;30.38;20.90;;;9.60;99.90;;;;;;5054620;28;20045;-76
2022/01/04 08:03:06;;;;;;;28.65;20.70;;;9.60;99.90;;;;;;5054121;28;20048;-81
2022/01/04 08:05:33;;;;;;;28.63;20.30;;;9.60;99.90;;;;;;5054780;28;20098;-75
2022/01/04 08:07:59;;;;;;;28.13;20.95;;;9.60;99.90;;;;;;5054614;28;20192;-78
2022/01/04 08:10:24;;;;;;;29.15;21.00;;;9.50;99.90;;;;;;5049692;28;20128;-78
2022/01/04 08:12:50;;;;;;;38.72;21.83;;;9.50;99.90;;;;;;5053353;28;20029;-77
2022/01/04 08:15:16;;;;;;;28.80;20.20;;;9.50;99.90;;;;;;5044514;28;20031;-76
2022/01/04 08:17:42;;;;;;;29.80;21.25;;;9.50;99.90;;;;;;5046930;28;20345;-77
2022/01/04 08:20:09;;;;;;;30.77;20.38;;;9.50;99.90;;;;;;5047271;28;20045;-76
2022/01/04 08:22:35;;;;;;;30.15;20.15;;;9.50;99.90;;;;;;5042589;28;20052;-76
2022/01/04 08:25:09;;;;;;;32.63;21.90;;;9.50;99.90;;;;;;5041560;28;20032;-77
2022/01/04 08:27:35;;;;;;;29.88;21.20;;;9.50;99.90;;;;;;5045568;28;20036;-75
2022/01/04 08:30:00;;;;;;;29.88;22.45;;;9.50;99.90;;;;;;5047006;28;20021;-77
2022/01/04 08:32:26;;;;;;;27.23;21.15;;;9.50;99.90;;;;;;5047307;28;20088;-77
2022/01/04 08:34:52;;;;;;;28.15;21.80;;;9.50;99.90;;;;;;5052060;28;20055;-77
2022/01/04 08:37:18;;;;;;;29.63;21.58;;;9.50;99.90;;;;;;5052498;28;20120;-77
2022/01/04 08:39:44;;;;;;;31.52;21.88;;;9.50;99.90;;;;;;5052632;28;20033;-75
2022/01/04 08:42:10;;;;;;;29.50;21.23;;;9.50;99.90;;;;;;5053886;28;20029;-76
2022/01/04 08:44:39;;;;;;;32.42;22.73;;;9.50;99.90;;;;;;5054001;28;20432;-76
2022/01/04 08:47:10;;;;;;;32.33;21.63;;;9.50;99.90;;;;;;5054233;28;20029;-76
2022/01/04 08:49:36;;;;;;;33.47;22.70;;;9.50;99.90;;;;;;5053911;28;20120;-76
2022/01/04 08:52:04;;;;;;;32.10;22.67;;;9.50;99.90;;;;;;5053553;28;20071;-76
2022/01/04 08:54:29;;;;;;;35.13;22.13;;;9.60;99.90;;;;;;5053351;28;20036;-76
2022/01/04 08:56:55;;;;;;;31.92;22.15;;;9.50;99.90;;;;;;5053605;28;20029;-76
2022/01/04 08:59:22;;;;;;;35.40;24.02;;;9.60;99.90;;;;;;5044664;28;20033;-76
2022/01/04 09:01:47;;;;;;;31.88;22.58;;;9.60;99.90;;;;;;5046029;28;20035;-77
2022/01/04 09:04:13;;;;;;;35.25;22.48;;;9.60;99.90;;;;;;5045575;28;20025;-76
2022/01/04 09:06:39;;;;;;;33.88;22.25;;;9.70;99.90;;;;;;5048525;28;20041;-77
2022/01/04 09:09:05;;;;;;;36.85;22.85;;;9.70;99.90;;;;;;5047831;28;20071;-75
2022/01/04 09:11:30;;;;;;;32.55;22.33;;;9.70;99.90;;;;;;5048000;28;20037;-76
2022/01/04 09:14:18;;;;;;;36.35;23.65;;;9.70;99.90;;;;;;5053396;28;20040;-76
2022/01/04 09:19:28;;;;;;;35.17;23.23;;;9.60;99.90;;;;;;5043133;28;20117;-76
2022/01/04 09:21:54;;;;;;;33.92;23.42;;;9.60;99.90;;;;;;5035495;28;20092;-77
2022/01/04 09:24:20;;;;;;;34.03;22.92;;;9.60;99.90;;;;;;5049607;28;20469;-78
2022/01/04 09:26:50;;;;;;;34.30;22.83;;;9.50;99.90;;;;;;5047558;28;20412;-75
2022/01/04 09:29:18;;;;;;;36.05;24.48;;;9.60;99.90;;;;;;5044154;28;20496;-76
2022/01/04 09:31:49;;;;;;;36.00;24.73;;;9.60;99.90;;;;;;5046206;28;20112;-74
2022/01/04 09:34:16;;;;;;;36.58;24.92;;;9.60;99.90;;;;;;5049885;28;20057;-75
2022/01/04 09:36:42;;;;;;;39.40;26.00;;;9.60;99.90;;;;;;5051834;28;20104;-76
2022/01/04 09:39:18;;;;;;;38.53;24.92;;;9.60;99.90;;;;;;5052106;28;20112;-77
2022/01/04 09:41:44;;;;;;;38.13;24.95;;;9.60;99.90;;;;;;5053416;28;20478;-77
2022/01/04 09:44:11;;;;;;;38.28;24.02;;;9.50;99.90;;;;;;5052461;28;20028;-76
2022/01/04 09:46:38;;;;;;;34.60;23.80;;;9.50;99.90;;;;;;5053287;28;20070;-75
2022/01/04 09:49:04;;;;;;;38.47;24.52;;;9.50;99.90;;;;;;5053161;28;20025;-74
2022/01/04 09:51:31;;;;;;;32.47;24.23;;;9.50;99.90;;;;;;5052743;28;20033;-74
2022/01/04 09:53:57;;;;;;;30.98;22.80;;;9.50;99.90;;;;;;5052607;28;20120;-74
2022/01/04 09:56:22;;;;;;;30.15;21.25;;;9.50;99.90;;;;;;5053205;28;20033;-73
2022/01/04 09:58:48;;;;;;;27.73;17.60;;;9.50;99.90;;;;;;5052370;28;20059;-75
2022/01/04 10:01:22;;;;;;;19.70;13.40;;;9.60;99.90;;;;;;5052610;28;20040;-74
2022/01/04 10:03:49;;;;;;;13.43;9.90;;;9.60;99.90;;;;;;5052160;28;20017;-73
2022/01/04 10:06:15;;;;;;;9.27;6.95;;;9.50;99.90;;;;;;5052044;28;20112;-74
2022/01/04 10:09:04;;;;;;;9.95;6.32;;;9.50;99.90;;;;;;5052134;28;20029;-74
2022/01/04 10:11:42;;;;;;;9.55;6.28;;;9.50;99.90;;;;;;5041411;28;20064;-75
2022/01/04 10:14:28;;;;;;;10.82;6.80;;;9.50;99.90;;;;;;5038627;28;20068;-76
2022/01/04 10:16:56;;;;;;;12.73;6.78;;;9.40;99.90;;;;;;5039796;28;20120;-76
2022/01/04 10:19:32;;;;;;;8.98;5.78;;;9.50;99.90;;;;;;5049932;28;20025;-75
2022/01/04 10:22:19;;;;;;;9.82;5.50;;;9.40;99.90;;;;;;5044117;28;20029;-77
2022/01/04 10:24:47;;;;;;;9.32;5.00;;;9.50;99.90;;;;;;5050908;28;20021;-77
2022/01/04 10:27:33;;;;;;;9.02;5.65;;;9.50;99.90;;;;;;5046709;28;20033;-74
2022/01/04 10:30:28;;;;;;;9.85;6.35;;;9.40;99.90;;;;;;5050492;28;20029;-75
2022/01/04 10:33:01;;;;;;;11.23;6.25;;;9.40;99.90;;;;;;5052626;28;20025;-73
2022/01/04 10:35:30;;;;;;;12.63;6.38;;;9.40;99.90;;;;;;5052331;28;20029;-75
2022/01/04 10:37:58;;;;;;;10.00;6.40;;;9.40;99.90;;;;;;5044163;28;20480;-73
2022/01/04 10:40:25;;;;;;;8.60;6.63;;;9.40;99.90;;;;;;5051123;28;20044;-73
2022/01/04 10:42:52;;;;;;;13.30;7.28;;;9.30;99.90;;;;;;5050927;28;20040;-72
2022/01/04 10:45:30;;;;;;;13.02;7.43;;;9.30;99.90;;;;;;5036706;28;20026;-72
2022/01/04 10:48:11;;;;;;;10.35;7.93;;;9.30;99.90;;;;;;5014340;28;20030;-72
2022/01/04 10:50:38;;;;;;;11.45;8.20;;;9.40;99.90;;;;;;5027847;28;20033;-74
2022/01/04 10:53:04;;;;;;;12.85;9.15;;;9.40;99.90;;;;;;5021797;28;20488;-73
2022/01/04 10:55:36;;;;;;;16.45;10.65;;;9.50;99.90;;;;;;5028356;28;20652;-73
2022/01/04 10:58:03;;;;;;;14.30;10.43;;;9.60;99.90;;;;;;5035909;28;20029;-72
2022/01/04 11:00:30;;;;;;;16.55;12.35;;;9.60;99.90;;;;;;5051168;28;20516;-73
2022/01/04 11:03:02;;;;;;;17.92;12.10;;;9.60;99.90;;;;;;5052059;28;20033;-72
2022/01/04 11:05:28;;;;;;;19.05;13.05;;;9.70;99.90;;;;;;5050807;28;20361;-72
2022/01/04 11:08:01;;;;;;;21.90;14.43;;;9.80;99.90;;;;;;5051631;28;20071;-72
2022/01/04 11:10:29;;;;;;;20.35;14.43;;;9.80;99.90;;;;;;5051320;28;20545;-72
2022/01/04 11:12:59;;;;;;;19.88;13.85;;;9.80;99.90;;;;;;5052121;28;20025;-72
2022/01/04 11:15:29;;;;;;;23.13;15.45;;;9.80;99.90;;;;;;5047313;28;20435;-73
2022/01/04 11:17:58;;;;;;;20.00;14.38;;;9.80;99.90;;;;;;5047560;28;20040;-72
2022/01/04 11:20:25;;;;;;;22.42;14.23;;;9.80;99.90;;;;;;5055393;28;20036;-72
2022/01/04 11:22:50;;;;;;;24.33;15.65;;;9.80;99.90;;;;;;5056084;28;20025;-73
2022/01/04 11:25:22;;;;;;;22.85;15.60;;;9.90;99.90;;;;;;5054811;28;20036;-73
2022/01/04 11:27:49;;;;;;;23.13;16.25;;;9.90;99.90;;;;;;5054382;28;20055;-72
2022/01/04 11:30:31;;;;;;;24.50;17.08;;;9.90;99.90;;;;;;5052465;28;20041;-72
2022/01/04 11:33:02;;;;;;;23.17;17.83;;;9.90;99.90;;;;;;5045479;28;20028;-72
2022/01/04 11:35:29;;;;;;;26.83;18.08;;;9.90;99.90;;;;;;5054229;28;20033;-77
2022/01/04 11:37:57;;;;;;;26.15;18.02;;;9.90;99.90;;;;;;5049372;28;20037;-75
2022/01/04 11:40:34;;;;;;;22.50;17.20;;;9.90;99.90;;;;;;5054982;28;20036;-73
2022/01/04 11:43:00;;;;;;;23.17;15.88;;;9.80;99.90;;;;;;5048800;28;20029;-72
2022/01/04 11:45:44;;;;;;;20.10;15.43;;;9.80;99.90;;;;;;5055280;28;20036;-75
2022/01/04 11:48:26;;;;;;;20.30;14.70;;;9.80;99.90;;;;;;5054527;28;20086;-74
2022/01/04 11:50:57;;;;;;;21.60;14.55;;;9.80;99.90;;;;;;5054583;28;20563;-75
2022/01/04 11:53:23;;;;;;;20.48;14.00;;;9.80;99.90;;;;;;5049936;28;20362;-73
2022/01/04 11:55:55;;;;;;;23.80;15.95;;;9.80;99.90;;;;;;5053740;28;20055;-74
2022/01/04 11:58:40;;;;;;;20.65;14.10;;;9.70;99.90;;;;;;5049312;28;20036;-76
2022/01/04 12:01:06;;;;;;;24.83;15.13;;;9.70;99.90;;;;;;5047535;28;20036;-74
2022/01/04 12:03:40;;;;;;;20.90;14.70;;;9.70;99.90;;;;;;5055152;28;20032;-73
2022/01/04 12:06:07;;;;;;;20.77;14.30;;;9.70;99.90;;;;;;5043667;28;20424;-73
2022/01/04 12:08:47;;;;;;;21.13;15.00;;;9.70;99.90;;;;;;5053549;28;20029;-73
2022/01/04 12:11:39;;;;;;;20.17;14.32;;;9.70;99.90;;;;;;5055022;28;20036;-74
2022/01/04 12:14:24;;;;;;;18.38;13.82;;;9.70;99.90;;;;;;5054803;28;20033;-76
2022/01/04 12:17:05;;;;;;;21.83;13.73;;;9.60;99.90;;;;;;5055086;28;20028;-73
2022/01/04 12:19:48;;;;;;;21.10;15.00;;;9.60;99.90;;;;;;5054639;28;20131;-74
2022/01/04 12:22:27;;;;;;;;;;;9.70;99.90;;;;;;5055025;28;20032;-73
2022/01/04 12:25:03;;;;;;;16.88;11.85;;;9.70;99.90;;;;;;5054607;28;20420;-74
2022/01/04 12:27:28;;;;;;;17.23;10.20;;;9.70;99.90;;;;;;5053780;28;20040;-74
2022/01/04 12:30:27;;;;;;;16.30;10.20;;;9.60;99.90;;;;;;5054372;28;20115;-75
2022/01/04 12:33:13;;;;;;;15.68;9.88;;;9.50;99.90;;;;;;5047447;28;20037;-75
2022/01/04 12:35:48;;;;;;;13.25;9.15;;;9.50;99.90;;;;;;5053912;28;20037;-74
2022/01/04 12:38:14;;;;;;;15.30;8.65;;;9.50;99.90;;;;;;5054075;28;20025;-74
2022/01/04 12:40:39;;;;;;;16.60;9.07;;;9.50;99.90;;;;;;5054322;28;20431;-74
2022/01/04 12:43:09;;;;;;;15.60;10.35;;;9.50;99.90;;;;;;5053436;28;20057;-75
2022/01/04 12:45:34;;;;;;;5.63;3.83;;;9.50;99.90;;;;;;5051402;28;20033;-78
2022/01/04 12:48:00;;;;;;;5.45;2.33;;;9.40;99.90;;;;;;5051611;28;20047;-77